createdAt,value
2023-09-20T00:01:35.577Z,71.66
2023-09-20T00:04:21.998Z,71.92
2023-09-20T00:07:08.556Z,72.20
2023-09-20T00:09:54.175Z,71.73
2023-09-20T00:12:41.737Z,72.24
2023-09-20T00:15:27.142Z,72.21
2023-09-20T00:18:12.815Z,72.21
2023-09-20T00:21:02.600Z,72.45
2023-09-20T00:23:48.210Z,72.12
2023-09-20T00:26:35.129Z,72.23
2023-09-20T00:29:20.575Z,72.76
2023-09-20T00:32:06.435Z,72.43
2023-09-20T00:34:52.420Z,71.84
2023-09-20T00:37:48.288Z,72.19
2023-09-20T00:40:36.360Z,72.36
2023-09-20T00:43:25.750Z,72.10
2023-09-20T00:46:12.775Z,72.26
2023-09-20T00:48:58.928Z,72.36
2023-09-20T00:51:48.459Z,72.26
2023-09-20T00:54:34.600Z,72.71
2023-09-20T00:57:20.664Z,72.72
2023-09-20T01:00:21.101Z,72.13
2023-09-20T01:03:07.111Z,72.79
2023-09-20T01:05:53.025Z,72.95
2023-09-20T01:08:38.738Z,72.69
2023-09-20T01:11:24.696Z,72.98
2023-09-20T01:14:10.426Z,73.28
2023-09-20T01:16:55.815Z,72.54
2023-09-20T01:19:41.579Z,72.80
2023-09-20T01:22:28.217Z,72.84
2023-09-20T01:25:23.848Z,72.91
2023-09-20T01:28:11.400Z,73.72
2023-09-20T01:30:59.490Z,73.52
2023-09-20T01:33:44.836Z,73.48
2023-09-20T01:36:30.594Z,73.71
2023-09-20T01:39:17.820Z,73.20
2023-09-20T01:42:05.562Z,73.58
2023-09-20T01:44:51.254Z,74.07
2023-09-20T01:47:39.303Z,74.01
2023-09-20T01:50:25.811Z,73.94
2023-09-20T01:53:12.911Z,74.01
2023-09-20T01:55:59.100Z,74.27
2023-09-20T01:58:45.792Z,74.46
2023-09-20T02:01:31.308Z,74.31
2023-09-20T02:04:16.659Z,73.44
2023-09-20T02:07:01.994Z,74.00
2023-09-20T02:09:47.467Z,74.17
2023-09-20T02:12:35.555Z,73.83
2023-09-20T02:15:31.428Z,73.72
2023-09-20T02:18:17.362Z,73.83
2023-09-20T02:21:03.620Z,74.05
2023-09-20T02:23:49.233Z,73.79
2023-09-20T02:26:34.964Z,74.21
2023-09-20T02:29:24.203Z,73.88
2023-09-20T02:32:09.660Z,74.47
2023-09-20T02:34:55.112Z,73.69
2023-09-20T02:37:44.887Z,74.51
2023-09-20T02:40:30.400Z,74.68
2023-09-20T02:43:17.800Z,74.55
2023-09-20T02:46:06.899Z,74.16
2023-09-20T02:48:53.833Z,74.46
2023-09-20T02:51:39.623Z,74.46
2023-09-20T02:54:25.508Z,74.23
2023-09-20T02:57:12.378Z,75.26
2023-09-20T02:59:59.544Z,75.61
2023-09-20T03:02:48.339Z,74.94
2023-09-20T03:05:35.888Z,75.85
2023-09-20T03:08:26.019Z,75.13
2023-09-20T03:11:21.200Z,74.60
2023-09-20T03:14:09.346Z,74.51
2023-09-20T03:16:55.333Z,75.28
2023-09-20T03:19:41.210Z,74.99
2023-09-20T03:22:26.868Z,74.60
2023-09-20T03:25:15.252Z,75.19
2023-09-20T03:28:01.424Z,74.95
2023-09-20T03:30:46.935Z,75.21
2023-09-20T03:33:33.067Z,75.07
2023-09-20T03:36:19.353Z,74.84
2023-09-20T03:39:07.648Z,75.26
2023-09-20T03:41:53.383Z,75.39
2023-09-20T03:44:40.379Z,74.81
2023-09-20T03:47:29.292Z,75.00
2023-09-20T03:50:19.340Z,75.59
2023-09-20T03:53:06.024Z,75.37
2023-09-20T03:55:51.976Z,75.47
2023-09-20T03:58:39.900Z,74.70
2023-09-20T04:01:25.681Z,74.63
2023-09-20T04:04:11.078Z,75.43
2023-09-20T04:06:56.418Z,74.96
2023-09-20T04:09:42.669Z,75.27
2023-09-20T04:12:28.649Z,75.32
2023-09-20T04:15:15.708Z,76.08
2023-09-20T04:18:09.795Z,75.92
2023-09-20T04:20:55.465Z,75.46
2023-09-20T04:23:41.020Z,75.68
2023-09-20T04:26:27.019Z,75.12
2023-09-20T04:29:13.115Z,75.73
2023-09-20T04:31:59.394Z,75.50
2023-09-20T04:34:46.420Z,75.53
2023-09-20T04:37:32.503Z,75.83
2023-09-20T04:40:18.104Z,75.38
2023-09-20T04:43:04.274Z,75.69
2023-09-20T04:45:50.433Z,75.83
2023-09-20T04:48:35.883Z,76.14
2023-09-20T04:51:22.348Z,75.81
2023-09-20T04:54:09.177Z,76.17
2023-09-20T04:56:54.822Z,75.36
2023-09-20T04:59:41.189Z,75.58
2023-09-20T05:02:26.954Z,75.23
2023-09-20T05:05:13.609Z,75.74
2023-09-20T05:07:59.262Z,76.07
2023-09-20T05:10:46.047Z,75.87
2023-09-20T05:13:31.981Z,75.93
2023-09-20T05:16:17.846Z,76.58
2023-09-20T05:19:04.410Z,75.65
2023-09-20T05:21:50.373Z,76.33
2023-09-20T05:24:36.151Z,75.69
2023-09-20T05:27:22.546Z,76.64
2023-09-20T05:30:09.614Z,75.76
2023-09-20T05:32:56.074Z,76.33
2023-09-20T05:35:41.892Z,76.14
2023-09-20T05:38:27.939Z,76.43
2023-09-20T05:41:14.092Z,76.50
2023-09-20T05:43:59.770Z,76.31
2023-09-20T05:46:45.386Z,76.67
2023-09-20T05:49:30.976Z,77.08
2023-09-20T05:52:16.853Z,77.06
2023-09-20T05:55:03.799Z,77.28
2023-09-20T05:57:49.425Z,77.25
2023-09-20T06:00:36.435Z,77.12
2023-09-20T06:03:22.821Z,76.90
2023-09-20T06:06:09.376Z,77.26
2023-09-20T06:08:54.705Z,76.98
2023-09-20T06:11:40.150Z,77.58
2023-09-20T06:14:26.011Z,77.42
2023-09-20T06:17:11.792Z,77.40
2023-09-20T06:20:00.157Z,77.70
2023-09-20T06:22:48.045Z,77.05
2023-09-20T06:25:35.411Z,77.26
2023-09-20T06:28:20.942Z,76.82
2023-09-20T06:31:06.741Z,76.74
2023-09-20T06:33:52.613Z,76.61
2023-09-20T06:36:38.412Z,76.32
2023-09-20T06:39:27.065Z,76.38
2023-09-20T06:42:12.467Z,75.86
2023-09-20T06:44:58.270Z,76.24
2023-09-20T06:47:44.901Z,76.06
2023-09-20T06:50:32.041Z,75.48
2023-09-20T06:53:18.690Z,76.08
2023-09-20T06:56:04.739Z,75.79
2023-09-20T06:58:51.325Z,75.93
2023-09-20T07:01:36.943Z,75.65
2023-09-20T07:04:23.112Z,75.05
2023-09-20T07:07:09.100Z,75.24
2023-09-20T07:09:54.856Z,75.29
2023-09-20T07:12:42.091Z,75.20
2023-09-20T07:15:29.305Z,75.71
2023-09-20T07:18:15.326Z,75.12
2023-09-20T07:21:01.392Z,75.05
2023-09-20T07:23:47.017Z,74.64
2023-09-20T07:26:34.061Z,74.86
2023-09-20T07:29:19.907Z,74.86
2023-09-20T07:32:05.647Z,74.67
2023-09-20T07:34:59.048Z,74.34
2023-09-20T07:37:45.268Z,74.31
2023-09-20T07:40:32.339Z,73.78
2023-09-20T07:43:28.615Z,73.85
2023-09-20T07:46:16.751Z,73.67
2023-09-20T07:49:10.422Z,73.54
2023-09-20T07:51:55.801Z,73.04
2023-09-20T07:54:41.335Z,72.64
2023-09-20T07:57:29.453Z,72.43
2023-09-20T08:00:16.679Z,71.88
2023-09-20T08:03:02.642Z,71.50
2023-09-20T08:05:50.382Z,71.12
2023-09-20T08:08:37.975Z,70.81
2023-09-20T08:11:24.016Z,70.49
2023-09-20T08:14:09.986Z,70.61
2023-09-20T08:17:14.129Z,70.35
2023-09-20T08:19:59.602Z,69.95
2023-09-20T08:23:05.063Z,69.58
2023-09-20T08:26:11.327Z,68.96
2023-09-20T08:29:15.592Z,69.03
2023-09-20T08:32:19.519Z,68.43
2023-09-20T08:35:24.146Z,68.23
2023-09-20T08:38:28.056Z,67.55
2023-09-20T08:41:32.167Z,67.40
2023-09-20T08:44:36.201Z,67.09
2023-09-20T08:47:41.317Z,66.92
2023-09-20T08:50:47.267Z,66.73
2023-09-20T08:53:51.708Z,66.24
2023-09-20T08:56:59.318Z,65.87
2023-09-20T08:59:52.295Z,65.50
2023-09-20T09:02:39.145Z,65.50
2023-09-20T09:05:28.916Z,65.13
2023-09-20T09:08:14.729Z,64.82
2023-09-20T09:11:00.323Z,64.30
2023-09-20T09:13:45.807Z,63.59
2023-09-20T09:16:34.378Z,63.16
2023-09-20T09:19:19.957Z,62.84
2023-09-20T09:22:07.170Z,62.18
2023-09-20T09:24:54.927Z,61.27
2023-09-20T09:27:41.865Z,61.73
2023-09-20T09:30:27.673Z,61.60
2023-09-20T09:33:15.261Z,61.49
2023-09-20T09:36:00.858Z,61.21
2023-09-20T09:38:46.343Z,60.91
2023-09-20T09:41:42.820Z,60.05
2023-09-20T09:44:28.340Z,59.77
2023-09-20T09:47:14.936Z,59.69
2023-09-20T09:50:02.623Z,59.28
2023-09-20T09:52:52.034Z,58.63
2023-09-20T09:55:40.475Z,57.01
2023-09-20T09:58:25.978Z,57.03
2023-09-20T10:01:12.467Z,57.43
2023-09-20T10:04:01.638Z,57.88
2023-09-20T10:07:17.612Z,56.29
2023-09-20T10:10:14.688Z,56.60
2023-09-20T10:13:04.274Z,56.45
2023-09-20T10:15:52.243Z,56.17
2023-09-20T10:19:01.625Z,54.39
2023-09-20T10:22:09.361Z,54.48
2023-09-20T10:24:59.684Z,55.70
2023-09-20T10:27:45.274Z,55.92
2023-09-20T10:30:35.503Z,55.67
2023-09-20T10:33:42.452Z,53.50
2023-09-20T10:36:32.247Z,54.50
2023-09-20T10:39:20.861Z,54.45
2023-09-20T10:42:14.040Z,54.21
2023-09-20T10:45:06.523Z,53.70
2023-09-20T10:47:54.000Z,54.22
2023-09-20T10:50:59.217Z,51.88
2023-09-20T10:53:45.557Z,53.35
2023-09-20T10:56:52.857Z,51.39
2023-09-20T10:59:40.206Z,52.30
2023-09-20T11:02:26.898Z,52.61
2023-09-20T11:05:12.794Z,52.05
2023-09-20T11:08:04.539Z,52.30
2023-09-20T11:10:50.336Z,52.31
2023-09-20T11:13:35.794Z,51.51
2023-09-20T11:16:23.134Z,51.43
2023-09-20T11:19:10.517Z,51.37
2023-09-20T11:21:58.294Z,50.69
2023-09-20T11:24:44.221Z,51.18
2023-09-20T11:27:29.658Z,50.76
2023-09-20T11:30:15.273Z,50.78
2023-09-20T11:33:01.777Z,51.15
2023-09-20T11:35:50.662Z,50.41
2023-09-20T11:38:37.335Z,49.99
2023-09-20T11:41:25.248Z,50.38
2023-09-20T11:44:10.347Z,47.57
2023-09-20T11:46:59.551Z,50.42
2023-09-20T11:49:45.187Z,50.25
2023-09-20T11:52:30.912Z,50.51
2023-09-20T11:55:17.755Z,50.37
2023-09-20T11:58:03.275Z,50.58
2023-09-20T12:00:48.847Z,50.66
2023-09-20T12:03:35.256Z,50.27
2023-09-20T12:06:20.878Z,50.14
2023-09-20T12:09:06.506Z,50.54
2023-09-20T12:11:52.694Z,50.23
2023-09-20T12:14:41.374Z,50.32
2023-09-20T12:17:28.138Z,50.18
2023-09-20T12:20:14.079Z,49.94
2023-09-20T12:23:03.482Z,49.98
2023-09-20T12:25:49.050Z,49.66
2023-09-20T12:28:37.436Z,49.90
2023-09-20T12:31:25.017Z,49.68
2023-09-20T12:34:11.298Z,49.68
2023-09-20T12:36:58.167Z,49.55
2023-09-20T12:39:43.697Z,49.39
2023-09-20T12:42:28.962Z,49.17
2023-09-20T12:45:15.975Z,49.69
2023-09-20T12:48:01.662Z,49.16
2023-09-20T12:50:47.894Z,49.60
2023-09-20T12:53:33.847Z,49.70
2023-09-20T12:56:19.739Z,49.61
2023-09-20T12:59:05.320Z,49.67
2023-09-20T13:01:50.909Z,49.87
2023-09-20T13:04:36.368Z,49.51
2023-09-20T13:07:22.961Z,49.41
2023-09-20T13:10:15.050Z,49.45
2023-09-20T13:13:09.491Z,49.29
2023-09-20T13:15:55.226Z,49.19
2023-09-20T13:18:40.979Z,49.24
2023-09-20T13:21:26.494Z,49.14
2023-09-20T13:24:12.676Z,48.77
2023-09-20T13:26:58.455Z,48.65
2023-09-20T13:29:44.138Z,48.66
2023-09-20T13:32:29.482Z,48.53
2023-09-20T13:35:18.169Z,48.59
2023-09-20T13:38:06.096Z,48.35
2023-09-20T13:40:52.455Z,48.18
2023-09-20T13:43:38.259Z,48.10
2023-09-20T13:46:26.700Z,48.54
2023-09-20T13:49:14.067Z,47.90
2023-09-20T13:51:59.290Z,45.66
2023-09-20T13:54:47.805Z,47.62
2023-09-20T13:57:37.982Z,47.69
2023-09-20T14:00:29.011Z,47.78
2023-09-20T14:03:16.494Z,47.75
2023-09-20T14:06:03.192Z,47.42
2023-09-20T14:08:49.705Z,47.74
2023-09-20T14:11:36.561Z,47.73
2023-09-20T14:14:28.087Z,47.76
2023-09-20T14:17:15.896Z,47.83
2023-09-20T14:20:10.445Z,47.44
2023-09-20T14:22:56.881Z,47.59
2023-09-20T14:25:42.216Z,47.17
2023-09-20T14:28:27.680Z,47.27
2023-09-20T14:31:18.148Z,46.61
2023-09-20T14:34:03.700Z,45.62
2023-09-20T14:36:49.126Z,45.18
2023-09-20T14:39:35.195Z,44.37
2023-09-20T14:42:20.541Z,43.76
2023-09-20T14:45:06.541Z,43.46
2023-09-20T14:47:53.399Z,43.72
2023-09-20T14:50:39.020Z,38.63
2023-09-20T14:53:26.407Z,44.43
2023-09-20T14:56:12.725Z,44.81
2023-09-20T14:58:58.430Z,44.80
2023-09-20T15:01:44.107Z,44.78
2023-09-20T15:04:32.591Z,45.24
2023-09-20T15:07:17.934Z,45.17
2023-09-20T15:10:04.535Z,45.50
2023-09-20T15:12:58.571Z,45.63
2023-09-20T15:15:46.520Z,46.08
2023-09-20T15:18:32.302Z,46.16
2023-09-20T15:21:18.076Z,46.40
2023-09-20T15:24:03.593Z,46.59
2023-09-20T15:26:48.946Z,46.51
2023-09-20T15:29:34.590Z,46.49
2023-09-20T15:32:20.983Z,47.02
2023-09-20T15:35:10.448Z,46.64
2023-09-20T15:37:57.013Z,46.88
2023-09-20T15:40:44.517Z,46.92
2023-09-20T15:43:37.487Z,46.78
2023-09-20T15:46:23.016Z,47.17
2023-09-20T15:49:08.334Z,46.93
2023-09-20T15:51:54.018Z,47.13
2023-09-20T15:54:40.234Z,47.68
2023-09-20T15:57:27.770Z,47.96
2023-09-20T16:00:17.554Z,48.28
2023-09-20T16:03:04.367Z,48.33
2023-09-20T16:05:51.869Z,48.42
2023-09-20T16:08:37.647Z,48.63
2023-09-20T16:11:23.349Z,48.91
2023-09-20T16:14:09.078Z,49.24
2023-09-20T16:16:55.703Z,49.42
2023-09-20T16:19:43.114Z,49.38
2023-09-20T16:22:28.796Z,49.32
2023-09-20T16:25:15.151Z,49.72
2023-09-20T16:28:00.451Z,49.80
2023-09-20T16:30:47.148Z,49.76
2023-09-20T16:33:32.774Z,50.00
2023-09-20T16:36:18.358Z,50.20
2023-09-20T16:39:04.039Z,50.42
2023-09-20T16:41:50.305Z,50.64
2023-09-20T16:44:36.161Z,50.88
2023-09-20T16:47:21.637Z,51.07
2023-09-20T16:50:07.595Z,51.46
2023-09-20T16:52:53.313Z,51.74
2023-09-20T16:55:38.866Z,52.07
2023-09-20T16:58:24.353Z,52.78
2023-09-20T17:01:14.411Z,53.08
2023-09-20T17:04:00.908Z,53.41
2023-09-20T17:06:47.202Z,53.55
2023-09-20T17:09:33.399Z,53.79
2023-09-20T17:12:18.750Z,54.21
2023-09-20T17:15:05.280Z,54.36
2023-09-20T17:17:51.090Z,54.50
2023-09-20T17:20:36.913Z,54.97
2023-09-20T17:23:22.846Z,55.27
2023-09-20T17:26:10.720Z,55.45
2023-09-20T17:28:56.641Z,55.91
2023-09-20T17:31:42.064Z,56.15
2023-09-20T17:34:27.619Z,56.21
2023-09-20T17:37:13.359Z,56.45
2023-09-20T17:39:59.115Z,56.20
2023-09-20T17:42:44.866Z,56.60
2023-09-20T17:45:30.413Z,56.49
2023-09-20T17:48:16.213Z,56.91
2023-09-20T17:51:01.837Z,57.23
2023-09-20T17:53:47.751Z,57.15
2023-09-20T17:56:33.484Z,57.71
2023-09-20T17:59:21.058Z,57.69
2023-09-20T18:02:07.696Z,57.49
2023-09-20T18:04:53.262Z,58.31
2023-09-20T18:07:38.722Z,58.37
2023-09-20T18:10:25.395Z,58.30
2023-09-20T18:13:11.149Z,58.91
2023-09-20T18:15:56.610Z,58.92
2023-09-20T18:18:42.970Z,59.49
2023-09-20T18:21:31.139Z,59.52
2023-09-20T18:24:16.570Z,59.92
2023-09-20T18:27:01.922Z,59.83
2023-09-20T18:29:47.357Z,60.20
2023-09-20T18:32:32.999Z,60.35
2023-09-20T18:35:18.619Z,60.28
2023-09-20T18:38:05.048Z,60.55
2023-09-20T18:40:51.248Z,61.01
2023-09-20T18:43:37.071Z,61.00
2023-09-20T18:46:26.809Z,60.94
2023-09-20T18:49:14.917Z,61.15
2023-09-20T18:52:01.848Z,61.40
2023-09-20T18:54:48.576Z,61.68
2023-09-20T18:57:34.348Z,61.94
2023-09-20T19:00:24.339Z,61.86
2023-09-20T19:03:17.142Z,62.11
2023-09-20T19:06:03.023Z,62.83
2023-09-20T19:08:54.322Z,62.83
2023-09-20T19:11:40.714Z,62.86
2023-09-20T19:14:27.165Z,63.01
2023-09-20T19:17:14.179Z,63.04
2023-09-20T19:20:01.487Z,63.85
2023-09-20T19:22:47.443Z,63.39
2023-09-20T19:25:33.937Z,63.65
2023-09-20T19:28:20.688Z,63.61
2023-09-20T19:31:07.171Z,63.50
2023-09-20T19:33:53.541Z,63.48
2023-09-20T19:36:41.270Z,63.98
2023-09-20T19:39:26.838Z,64.00
2023-09-20T19:42:13.232Z,64.23
2023-09-20T19:44:58.799Z,64.69
2023-09-20T19:47:45.715Z,64.19
2023-09-20T19:50:34.926Z,64.79
2023-09-20T19:53:20.835Z,65.07
2023-09-20T19:56:07.593Z,65.23
2023-09-20T19:58:53.293Z,65.24
2023-09-20T20:01:40.483Z,65.39
2023-09-20T20:04:27.164Z,65.38
2023-09-20T20:07:26.854Z,65.56
2023-09-20T20:10:13.181Z,65.71
2023-09-20T20:12:59.261Z,65.59
2023-09-20T20:15:44.976Z,65.42
2023-09-20T20:18:30.993Z,65.62
2023-09-20T20:21:18.532Z,66.31
2023-09-20T20:24:05.197Z,65.79
2023-09-20T20:26:51.110Z,65.79
2023-09-20T20:29:36.544Z,65.53
2023-09-20T20:32:22.068Z,65.97
2023-09-20T20:35:09.862Z,66.47
2023-09-20T20:37:56.575Z,66.76
2023-09-20T20:40:43.760Z,66.58
2023-09-20T20:43:31.176Z,66.78
2023-09-20T20:46:17.599Z,67.06
2023-09-20T20:49:03.739Z,67.40
2023-09-20T20:51:49.212Z,67.23
2023-09-20T20:54:34.481Z,67.43
2023-09-20T20:57:20.095Z,67.15
2023-09-20T21:00:13.917Z,67.19
2023-09-20T21:03:11.466Z,67.60
2023-09-20T21:05:57.175Z,67.82
2023-09-20T21:08:48.446Z,68.10
2023-09-20T21:11:34.659Z,68.32
2023-09-20T21:14:20.632Z,68.12
2023-09-20T21:17:06.189Z,67.99
2023-09-20T21:19:53.989Z,67.83
2023-09-20T21:22:39.525Z,68.55
2023-09-20T21:25:27.400Z,68.12
2023-09-20T21:28:12.928Z,68.52
2023-09-20T21:30:58.527Z,68.95
2023-09-20T21:33:45.073Z,68.02
2023-09-20T21:36:31.096Z,68.94
2023-09-20T21:39:16.883Z,68.68
2023-09-20T21:42:02.190Z,68.76
2023-09-20T21:44:47.628Z,69.05
2023-09-20T21:47:33.322Z,68.92
2023-09-20T21:50:20.745Z,69.28
2023-09-20T21:53:06.359Z,69.90
2023-09-20T21:55:52.073Z,69.37
2023-09-20T21:58:37.585Z,69.34
2023-09-20T22:01:23.175Z,69.65
2023-09-20T22:04:08.631Z,69.11
2023-09-20T22:06:54.103Z,69.77
2023-09-20T22:09:40.454Z,69.07
2023-09-20T22:12:29.475Z,69.64
2023-09-20T22:15:19.801Z,68.99
2023-09-20T22:18:19.171Z,69.00
2023-09-20T22:21:09.300Z,69.61
2023-09-20T22:23:55.105Z,69.40
2023-09-20T22:26:41.228Z,70.06
2023-09-20T22:29:26.721Z,70.00
2023-09-20T22:32:12.140Z,70.25
2023-09-20T22:34:58.317Z,70.24
2023-09-20T22:37:53.524Z,70.50
2023-09-20T22:40:39.730Z,70.60
2023-09-20T22:43:26.075Z,70.52
2023-09-20T22:46:11.959Z,70.48
2023-09-20T22:48:58.418Z,70.79
2023-09-20T22:51:45.585Z,71.00
2023-09-20T22:54:30.881Z,70.91
2023-09-20T22:57:23.769Z,70.86
2023-09-20T23:00:22.857Z,70.65
2023-09-20T23:03:10.948Z,70.71
2023-09-20T23:05:56.724Z,70.72
2023-09-20T23:08:42.683Z,71.14
2023-09-20T23:11:28.646Z,71.14
2023-09-20T23:14:15.731Z,71.62
2023-09-20T23:17:16.332Z,71.01
2023-09-20T23:20:20.848Z,71.20
2023-09-20T23:23:07.854Z,71.20
2023-09-20T23:25:54.908Z,71.62
2023-09-20T23:28:40.646Z,71.86
2023-09-20T23:31:28.738Z,71.79
2023-09-20T23:34:18.633Z,71.83
2023-09-20T23:37:13.646Z,71.55
2023-09-20T23:40:00.770Z,71.60
2023-09-20T23:42:48.094Z,72.14
2023-09-20T23:45:34.195Z,72.39
2023-09-20T23:48:19.890Z,72.57
2023-09-20T23:51:09.305Z,72.17
2023-09-20T23:53:54.930Z,72.06
2023-09-20T23:56:42.833Z,72.17
2023-09-20T23:59:28.505Z,72.12
